sensor_id;sensor_type;location;lat;lon;timestamp;P1;durP1;ratioP1;P2;durP2;ratioP2
52432;SDS011;38352;53.244;6.594;2023-05-07T00:01:56;30.50;;;21.17;;
52432;SDS011;38352;53.244;6.594;2023-05-07T00:04:22;34.33;;;21.02;;
52432;SDS011;38352;53.244;6.594;2023-05-07T00:06:48;34.30;;;22.38;;
52432;SDS011;38352;53.244;6.594;2023-05-07T00:09:15;37.08;;;21.75;;
52432;SDS011;38352;53.244;6.594;2023-05-07T00:11:41;33.22;;;21.27;;
52432;SDS011;38352;53.244;6.594;2023-05-07T00:14:07;32.35;;;20.60;;
52432;SDS011;38352;53.244;6.594;2023-05-07T00:16:33;34.10;;;22.05;;
52432;SDS011;38352;53.244;6.594;2023-05-07T00:18:59;36.30;;;22.02;;
52432;SDS011;38352;53.244;6.594;2023-05-07T00:21:25;37.45;;;21.38;;
52432;SDS011;38352;53.244;6.594;2023-05-07T00:23:52;37.22;;;22.88;;
52432;SDS011;38352;53.244;6.594;2023-05-07T00:26:18;36.00;;;22.70;;
52432;SDS011;38352;53.244;6.594;2023-05-07T00:28:45;35.67;;;23.73;;
52432;SDS011;38352;53.244;6.594;2023-05-07T00:31:11;36.42;;;23.25;;
52432;SDS011;38352;53.244;6.594;2023-05-07T00:33:38;35.92;;;22.65;;
52432;SDS011;38352;53.244;6.594;2023-05-07T00:36:04;37.65;;;23.58;;
52432;SDS011;38352;53.244;6.594;2023-05-07T00:38:30;35.88;;;22.00;;
52432;SDS011;38352;53.244;6.594;2023-05-07T00:40:56;40.83;;;25.63;;
52432;SDS011;38352;53.244;6.594;2023-05-07T00:43:22;39.22;;;24.60;;
52432;SDS011;38352;53.244;6.594;2023-05-07T00:45:48;39.78;;;24.40;;
52432;SDS011;38352;53.244;6.594;2023-05-07T00:48:15;41.95;;;26.02;;
52432;SDS011;38352;53.244;6.594;2023-05-07T00:50:41;43.30;;;26.65;;
52432;SDS011;38352;53.244;6.594;2023-05-07T00:53:07;38.38;;;24.15;;
52432;SDS011;38352;53.244;6.594;2023-05-07T00:55:34;42.13;;;25.98;;
52432;SDS011;38352;53.244;6.594;2023-05-07T00:58:01;44.70;;;27.33;;
52432;SDS011;38352;53.244;6.594;2023-05-07T01:00:27;42.58;;;25.92;;
52432;SDS011;38352;53.244;6.594;2023-05-07T01:02:53;41.35;;;26.00;;
52432;SDS011;38352;53.244;6.594;2023-05-07T01:05:20;44.42;;;27.05;;
52432;SDS011;38352;53.244;6.594;2023-05-07T01:07:47;49.67;;;29.83;;
52432;SDS011;38352;53.244;6.594;2023-05-07T01:10:15;45.75;;;28.17;;
52432;SDS011;38352;53.244;6.594;2023-05-07T01:12:41;51.03;;;28.75;;
52432;SDS011;38352;53.244;6.594;2023-05-07T01:15:08;48.75;;;28.63;;
52432;SDS011;38352;53.244;6.594;2023-05-07T01:17:38;44.47;;;28.02;;
52432;SDS011;38352;53.244;6.594;2023-05-07T01:20:05;52.42;;;30.60;;
52432;SDS011;38352;53.244;6.594;2023-05-07T01:22:33;50.63;;;30.40;;
52432;SDS011;38352;53.244;6.594;2023-05-07T01:24:59;53.10;;;32.03;;
52432;SDS011;38352;53.244;6.594;2023-05-07T01:27:27;52.13;;;31.50;;
52432;SDS011;38352;53.244;6.594;2023-05-07T01:29:53;48.58;;;30.35;;
52432;SDS011;38352;53.244;6.594;2023-05-07T01:32:21;46.35;;;29.85;;
52432;SDS011;38352;53.244;6.594;2023-05-07T01:34:49;51.60;;;31.23;;
52432;SDS011;38352;53.244;6.594;2023-05-07T01:37:16;58.05;;;32.42;;
52432;SDS011;38352;53.244;6.594;2023-05-07T01:39:42;54.15;;;32.17;;
52432;SDS011;38352;53.244;6.594;2023-05-07T01:42:08;53.47;;;31.80;;
52432;SDS011;38352;53.244;6.594;2023-05-07T01:44:35;51.05;;;31.75;;
52432;SDS011;38352;53.244;6.594;2023-05-07T01:47:01;57.95;;;32.75;;
52432;SDS011;38352;53.244;6.594;2023-05-07T01:49:27;53.22;;;32.08;;
52432;SDS011;38352;53.244;6.594;2023-05-07T01:51:54;53.10;;;33.03;;
52432;SDS011;38352;53.244;6.594;2023-05-07T01:54:24;49.78;;;31.42;;
52432;SDS011;38352;53.244;6.594;2023-05-07T01:56:52;53.35;;;32.53;;
52432;SDS011;38352;53.244;6.594;2023-05-07T01:59:18;50.50;;;30.60;;
52432;SDS011;38352;53.244;6.594;2023-05-07T02:01:44;57.33;;;32.38;;
52432;SDS011;38352;53.244;6.594;2023-05-07T02:04:10;55.30;;;32.75;;
52432;SDS011;38352;53.244;6.594;2023-05-07T02:06:36;55.13;;;32.47;;
52432;SDS011;38352;53.244;6.594;2023-05-07T02:09:03;51.47;;;31.75;;
52432;SDS011;38352;53.244;6.594;2023-05-07T02:11:29;56.95;;;32.47;;
52432;SDS011;38352;53.244;6.594;2023-05-07T02:13:55;58.28;;;33.92;;
52432;SDS011;38352;53.244;6.594;2023-05-07T02:16:21;58.30;;;33.95;;
52432;SDS011;38352;53.244;6.594;2023-05-07T02:18:48;53.88;;;33.55;;
52432;SDS011;38352;53.244;6.594;2023-05-07T02:21:14;58.78;;;34.30;;
52432;SDS011;38352;53.244;6.594;2023-05-07T02:23:40;59.88;;;33.83;;
52432;SDS011;38352;53.244;6.594;2023-05-07T02:26:06;62.78;;;36.47;;
52432;SDS011;38352;53.244;6.594;2023-05-07T02:28:32;62.97;;;37.60;;
52432;SDS011;38352;53.244;6.594;2023-05-07T02:31:02;65.10;;;38.40;;
52432;SDS011;38352;53.244;6.594;2023-05-07T02:33:28;70.38;;;38.10;;
52432;SDS011;38352;53.244;6.594;2023-05-07T02:35:54;69.18;;;38.17;;
52432;SDS011;38352;53.244;6.594;2023-05-07T02:38:20;63.00;;;37.38;;
52432;SDS011;38352;53.244;6.594;2023-05-07T02:40:46;63.60;;;37.42;;
52432;SDS011;38352;53.244;6.594;2023-05-07T02:43:12;62.53;;;36.80;;
52432;SDS011;38352;53.244;6.594;2023-05-07T02:45:38;67.05;;;36.53;;
52432;SDS011;38352;53.244;6.594;2023-05-07T02:48:04;56.20;;;34.55;;
52432;SDS011;38352;53.244;6.594;2023-05-07T02:50:31;61.70;;;35.08;;
52432;SDS011;38352;53.244;6.594;2023-05-07T02:52:57;57.58;;;32.47;;
52432;SDS011;38352;53.244;6.594;2023-05-07T02:55:23;61.08;;;33.30;;
52432;SDS011;38352;53.244;6.594;2023-05-07T02:57:49;53.80;;;31.80;;
52432;SDS011;38352;53.244;6.594;2023-05-07T03:00:16;59.03;;;32.05;;
52432;SDS011;38352;53.244;6.594;2023-05-07T03:02:43;55.53;;;32.92;;
52432;SDS011;38352;53.244;6.594;2023-05-07T03:05:09;54.33;;;32.60;;
52432;SDS011;38352;53.244;6.594;2023-05-07T03:07:36;58.67;;;32.10;;
52432;SDS011;38352;53.244;6.594;2023-05-07T03:10:02;59.65;;;33.17;;
52432;SDS011;38352;53.244;6.594;2023-05-07T03:12:29;64.65;;;35.53;;
52432;SDS011;38352;53.244;6.594;2023-05-07T03:14:55;67.78;;;37.50;;
52432;SDS011;38352;53.244;6.594;2023-05-07T03:17:21;55.47;;;33.78;;
52432;SDS011;38352;53.244;6.594;2023-05-07T03:19:47;56.45;;;32.38;;
52432;SDS011;38352;53.244;6.594;2023-05-07T03:22:13;53.00;;;30.63;;
52432;SDS011;38352;53.244;6.594;2023-05-07T03:24:40;58.42;;;31.73;;
52432;SDS011;38352;53.244;6.594;2023-05-07T03:27:06;56.38;;;32.22;;
52432;SDS011;38352;53.244;6.594;2023-05-07T03:29:32;56.17;;;31.88;;
52432;SDS011;38352;53.244;6.594;2023-05-07T03:31:58;51.42;;;30.33;;
52432;SDS011;38352;53.244;6.594;2023-05-07T03:34:24;50.90;;;31.52;;
52432;SDS011;38352;53.244;6.594;2023-05-07T03:36:50;51.17;;;30.27;;
52432;SDS011;38352;53.244;6.594;2023-05-07T03:39:16;54.42;;;31.42;;
52432;SDS011;38352;53.244;6.594;2023-05-07T03:41:42;51.42;;;30.55;;
52432;SDS011;38352;53.244;6.594;2023-05-07T03:44:08;54.08;;;30.95;;
52432;SDS011;38352;53.244;6.594;2023-05-07T03:46:34;60.65;;;32.33;;
52432;SDS011;38352;53.244;6.594;2023-05-07T03:49:00;54.67;;;31.38;;
52432;SDS011;38352;53.244;6.594;2023-05-07T03:51:27;54.90;;;32.05;;
52432;SDS011;38352;53.244;6.594;2023-05-07T03:53:53;61.42;;;33.28;;
52432;SDS011;38352;53.244;6.594;2023-05-07T03:56:19;57.85;;;32.28;;
52432;SDS011;38352;53.244;6.594;2023-05-07T03:58:47;57.17;;;32.90;;
52432;SDS011;38352;53.244;6.594;2023-05-07T04:01:13;62.50;;;34.90;;
52432;SDS011;38352;53.244;6.594;2023-05-07T04:03:39;67.40;;;36.15;;
52432;SDS011;38352;53.244;6.594;2023-05-07T04:06:05;60.00;;;34.20;;
52432;SDS011;38352;53.244;6.594;2023-05-07T04:08:31;58.38;;;34.50;;
52432;SDS011;38352;53.244;6.594;2023-05-07T04:10:57;60.90;;;34.22;;
52432;SDS011;38352;53.244;6.594;2023-05-07T04:13:24;60.17;;;33.83;;
52432;SDS011;38352;53.244;6.594;2023-05-07T04:15:54;61.75;;;35.35;;
52432;SDS011;38352;53.244;6.594;2023-05-07T04:18:20;65.50;;;35.75;;
52432;SDS011;38352;53.244;6.594;2023-05-07T04:20:49;59.45;;;33.88;;
52432;SDS011;38352;53.244;6.594;2023-05-07T04:23:16;60.83;;;34.28;;
52432;SDS011;38352;53.244;6.594;2023-05-07T04:25:42;55.30;;;32.40;;
52432;SDS011;38352;53.244;6.594;2023-05-07T04:28:08;53.30;;;31.83;;
52432;SDS011;38352;53.244;6.594;2023-05-07T04:30:34;52.88;;;33.20;;
52432;SDS011;38352;53.244;6.594;2023-05-07T04:33:00;57.70;;;33.60;;
52432;SDS011;38352;53.244;6.594;2023-05-07T04:35:26;54.47;;;31.83;;
52432;SDS011;38352;53.244;6.594;2023-05-07T04:37:52;56.33;;;34.13;;
52432;SDS011;38352;53.244;6.594;2023-05-07T04:40:18;55.88;;;31.63;;
52432;SDS011;38352;53.244;6.594;2023-05-07T04:42:45;52.95;;;30.92;;
52432;SDS011;38352;53.244;6.594;2023-05-07T04:45:11;48.70;;;29.50;;
52432;SDS011;38352;53.244;6.594;2023-05-07T04:47:38;52.67;;;29.45;;
52432;SDS011;38352;53.244;6.594;2023-05-07T04:50:04;52.22;;;29.20;;
52432;SDS011;38352;53.244;6.594;2023-05-07T04:52:31;46.58;;;29.00;;
52432;SDS011;38352;53.244;6.594;2023-05-07T04:54:58;52.95;;;30.38;;
52432;SDS011;38352;53.244;6.594;2023-05-07T04:57:25;50.10;;;30.88;;
52432;SDS011;38352;53.244;6.594;2023-05-07T04:59:51;48.40;;;28.92;;
52432;SDS011;38352;53.244;6.594;2023-05-07T05:02:17;46.83;;;27.95;;
52432;SDS011;38352;53.244;6.594;2023-05-07T05:04:43;49.33;;;28.30;;
52432;SDS011;38352;53.244;6.594;2023-05-07T05:07:10;47.83;;;27.77;;
52432;SDS011;38352;53.244;6.594;2023-05-07T05:09:36;46.92;;;28.52;;
52432;SDS011;38352;53.244;6.594;2023-05-07T05:12:02;45.47;;;28.02;;
52432;SDS011;38352;53.244;6.594;2023-05-07T05:14:28;46.45;;;27.15;;
52432;SDS011;38352;53.244;6.594;2023-05-07T05:16:54;41.80;;;27.05;;
52432;SDS011;38352;53.244;6.594;2023-05-07T05:19:20;48.15;;;28.00;;
52432;SDS011;38352;53.244;6.594;2023-05-07T05:21:46;44.63;;;26.55;;
52432;SDS011;38352;53.244;6.594;2023-05-07T05:24:12;47.75;;;27.67;;
52432;SDS011;38352;53.244;6.594;2023-05-07T05:26:39;45.55;;;27.58;;
52432;SDS011;38352;53.244;6.594;2023-05-07T05:29:05;48.33;;;28.75;;
52432;SDS011;38352;53.244;6.594;2023-05-07T05:31:31;43.38;;;27.65;;
52432;SDS011;38352;53.244;6.594;2023-05-07T05:33:58;48.35;;;28.52;;
52432;SDS011;38352;53.244;6.594;2023-05-07T05:36:25;43.08;;;27.42;;
52432;SDS011;38352;53.244;6.594;2023-05-07T05:38:51;45.22;;;27.60;;
52432;SDS011;38352;53.244;6.594;2023-05-07T05:41:17;42.63;;;25.73;;
52432;SDS011;38352;53.244;6.594;2023-05-07T05:43:43;43.47;;;26.13;;
52432;SDS011;38352;53.244;6.594;2023-05-07T05:46:09;40.95;;;25.75;;
52432;SDS011;38352;53.244;6.594;2023-05-07T05:48:36;43.17;;;25.63;;
52432;SDS011;38352;53.244;6.594;2023-05-07T05:51:02;42.08;;;24.65;;
52432;SDS011;38352;53.244;6.594;2023-05-07T05:53:28;36.75;;;24.35;;
52432;SDS011;38352;53.244;6.594;2023-05-07T05:55:55;43.63;;;27.65;;
52432;SDS011;38352;53.244;6.594;2023-05-07T05:58:21;48.25;;;28.27;;
52432;SDS011;38352;53.244;6.594;2023-05-07T06:00:47;50.95;;;30.63;;
52432;SDS011;38352;53.244;6.594;2023-05-07T06:03:13;52.63;;;30.95;;
52432;SDS011;38352;53.244;6.594;2023-05-07T06:05:39;51.05;;;30.23;;
52432;SDS011;38352;53.244;6.594;2023-05-07T06:08:05;48.95;;;29.35;;
52432;SDS011;38352;53.244;6.594;2023-05-07T06:10:31;44.38;;;26.40;;
52432;SDS011;38352;53.244;6.594;2023-05-07T06:12:57;39.58;;;25.10;;
52432;SDS011;38352;53.244;6.594;2023-05-07T06:15:23;41.65;;;26.10;;
52432;SDS011;38352;53.244;6.594;2023-05-07T06:17:50;40.45;;;26.00;;
52432;SDS011;38352;53.244;6.594;2023-05-07T06:20:16;44.63;;;28.10;;
52432;SDS011;38352;53.244;6.594;2023-05-07T06:22:42;48.05;;;29.42;;
52432;SDS011;38352;53.244;6.594;2023-05-07T06:25:08;53.28;;;33.35;;
52432;SDS011;38352;53.244;6.594;2023-05-07T06:27:34;58.03;;;33.08;;
52432;SDS011;38352;53.244;6.594;2023-05-07T06:30:00;55.00;;;33.05;;
52432;SDS011;38352;53.244;6.594;2023-05-07T06:32:26;50.25;;;31.67;;
52432;SDS011;38352;53.244;6.594;2023-05-07T06:34:52;53.97;;;32.03;;
52432;SDS011;38352;53.244;6.594;2023-05-07T06:37:18;56.05;;;32.53;;
52432;SDS011;38352;53.244;6.594;2023-05-07T06:39:45;49.38;;;30.20;;
52432;SDS011;38352;53.244;6.594;2023-05-07T06:42:11;49.15;;;30.15;;
52432;SDS011;38352;53.244;6.594;2023-05-07T06:44:37;45.90;;;26.90;;
52432;SDS011;38352;53.244;6.594;2023-05-07T06:47:03;43.50;;;26.38;;
52432;SDS011;38352;53.244;6.594;2023-05-07T06:49:30;44.20;;;28.27;;
52432;SDS011;38352;53.244;6.594;2023-05-07T06:51:56;38.35;;;25.10;;
52432;SDS011;38352;53.244;6.594;2023-05-07T06:54:22;39.83;;;24.70;;
52432;SDS011;38352;53.244;6.594;2023-05-07T06:56:49;36.70;;;22.90;;
52432;SDS011;38352;53.244;6.594;2023-05-07T06:59:15;38.88;;;22.55;;
52432;SDS011;38352;53.244;6.594;2023-05-07T07:01:42;34.88;;;22.33;;
52432;SDS011;38352;53.244;6.594;2023-05-07T07:04:08;36.13;;;21.42;;
52432;SDS011;38352;53.244;6.594;2023-05-07T07:06:34;33.80;;;22.25;;
52432;SDS011;38352;53.244;6.594;2023-05-07T07:09:00;32.47;;;21.83;;
52432;SDS011;38352;53.244;6.594;2023-05-07T07:11:27;35.25;;;21.70;;
52432;SDS011;38352;53.244;6.594;2023-05-07T07:13:53;33.13;;;21.50;;
52432;SDS011;38352;53.244;6.594;2023-05-07T07:16:20;46.40;;;22.33;;
52432;SDS011;38352;53.244;6.594;2023-05-07T07:18:46;32.47;;;20.65;;
52432;SDS011;38352;53.244;6.594;2023-05-07T07:21:12;35.17;;;20.55;;
52432;SDS011;38352;53.244;6.594;2023-05-07T07:23:38;34.72;;;21.05;;
52432;SDS011;38352;53.244;6.594;2023-05-07T07:26:04;33.17;;;20.65;;
52432;SDS011;38352;53.244;6.594;2023-05-07T07:28:31;32.90;;;20.88;;
52432;SDS011;38352;53.244;6.594;2023-05-07T07:30:57;35.75;;;20.88;;
52432;SDS011;38352;53.244;6.594;2023-05-07T07:33:24;36.22;;;21.10;;
52432;SDS011;38352;53.244;6.594;2023-05-07T07:35:50;36.10;;;21.45;;
52432;SDS011;38352;53.244;6.594;2023-05-07T07:38:16;34.80;;;21.10;;
52432;SDS011;38352;53.244;6.594;2023-05-07T07:40:42;36.92;;;22.38;;
52432;SDS011;38352;53.244;6.594;2023-05-07T07:43:09;34.67;;;21.45;;
52432;SDS011;38352;53.244;6.594;2023-05-07T07:45:35;33.30;;;20.73;;
52432;SDS011;38352;53.244;6.594;2023-05-07T07:48:01;34.10;;;21.63;;
52432;SDS011;38352;53.244;6.594;2023-05-07T07:50:27;38.00;;;22.23;;
52432;SDS011;38352;53.244;6.594;2023-05-07T07:52:53;35.97;;;21.33;;
52432;SDS011;38352;53.244;6.594;2023-05-07T07:55:20;36.25;;;20.92;;
52432;SDS011;38352;53.244;6.594;2023-05-07T07:57:48;38.17;;;22.35;;
52432;SDS011;38352;53.244;6.594;2023-05-07T08:00:14;35.60;;;21.33;;
52432;SDS011;38352;53.244;6.594;2023-05-07T08:02:44;34.53;;;21.45;;
52432;SDS011;38352;53.244;6.594;2023-05-07T08:05:10;35.10;;;21.88;;
52432;SDS011;38352;53.244;6.594;2023-05-07T08:07:36;35.75;;;21.38;;
52432;SDS011;38352;53.244;6.594;2023-05-07T08:10:02;33.90;;;21.13;;
52432;SDS011;38352;53.244;6.594;2023-05-07T08:12:29;35.05;;;20.73;;
52432;SDS011;38352;53.244;6.594;2023-05-07T08:14:55;35.70;;;21.25;;
52432;SDS011;38352;53.244;6.594;2023-05-07T08:17:21;33.58;;;21.80;;
52432;SDS011;38352;53.244;6.594;2023-05-07T08:19:47;36.00;;;21.73;;
52432;SDS011;38352;53.244;6.594;2023-05-07T08:22:13;35.83;;;21.35;;
52432;SDS011;38352;53.244;6.594;2023-05-07T08:24:40;37.90;;;22.50;;
52432;SDS011;38352;53.244;6.594;2023-05-07T08:27:06;37.42;;;22.65;;
52432;SDS011;38352;53.244;6.594;2023-05-07T08:29:32;33.42;;;20.55;;
52432;SDS011;38352;53.244;6.594;2023-05-07T08:31:58;33.47;;;20.20;;
52432;SDS011;38352;53.244;6.594;2023-05-07T08:34:24;34.50;;;21.30;;
52432;SDS011;38352;53.244;6.594;2023-05-07T08:36:50;34.72;;;21.55;;
52432;SDS011;38352;53.244;6.594;2023-05-07T08:39:16;33.90;;;21.38;;
52432;SDS011;38352;53.244;6.594;2023-05-07T08:41:45;33.78;;;20.15;;
52432;SDS011;38352;53.244;6.594;2023-05-07T08:44:12;33.58;;;21.38;;
52432;SDS011;38352;53.244;6.594;2023-05-07T08:46:39;35.88;;;21.27;;
52432;SDS011;38352;53.244;6.594;2023-05-07T08:49:05;31.52;;;20.55;;
52432;SDS011;38352;53.244;6.594;2023-05-07T08:51:31;32.78;;;20.25;;
52432;SDS011;38352;53.244;6.594;2023-05-07T08:53:57;33.83;;;20.30;;
52432;SDS011;38352;53.244;6.594;2023-05-07T08:56:23;30.42;;;19.75;;
52432;SDS011;38352;53.244;6.594;2023-05-07T08:58:50;33.33;;;20.58;;
52432;SDS011;38352;53.244;6.594;2023-05-07T09:01:16;31.63;;;19.80;;
52432;SDS011;38352;53.244;6.594;2023-05-07T09:03:44;30.70;;;19.15;;
52432;SDS011;38352;53.244;6.594;2023-05-07T09:06:10;30.08;;;20.63;;
52432;SDS011;38352;53.244;6.594;2023-05-07T09:08:36;30.17;;;19.13;;
52432;SDS011;38352;53.244;6.594;2023-05-07T09:11:02;31.70;;;19.85;;
52432;SDS011;38352;53.244;6.594;2023-05-07T09:13:28;34.40;;;21.13;;
52432;SDS011;38352;53.244;6.594;2023-05-07T09:15:55;31.50;;;20.13;;
52432;SDS011;38352;53.244;6.594;2023-05-07T09:18:23;30.40;;;19.15;;
52432;SDS011;38352;53.244;6.594;2023-05-07T09:20:50;31.75;;;20.27;;
52432;SDS011;38352;53.244;6.594;2023-05-07T09:23:16;31.08;;;20.02;;
52432;SDS011;38352;53.244;6.594;2023-05-07T09:25:42;31.42;;;20.05;;
52432;SDS011;38352;53.244;6.594;2023-05-07T09:28:08;33.83;;;20.77;;
52432;SDS011;38352;53.244;6.594;2023-05-07T09:30:35;27.88;;;19.13;;
52432;SDS011;38352;53.244;6.594;2023-05-07T09:33:02;32.33;;;19.98;;
52432;SDS011;38352;53.244;6.594;2023-05-07T09:35:29;31.27;;;20.02;;
52432;SDS011;38352;53.244;6.594;2023-05-07T09:37:56;31.73;;;21.33;;
52432;SDS011;38352;53.244;6.594;2023-05-07T09:40:23;28.33;;;19.42;;
52432;SDS011;38352;53.244;6.594;2023-05-07T09:42:49;32.00;;;19.55;;
52432;SDS011;38352;53.244;6.594;2023-05-07T09:45:16;30.48;;;21.00;;
52432;SDS011;38352;53.244;6.594;2023-05-07T09:47:42;29.17;;;20.05;;
52432;SDS011;38352;53.244;6.594;2023-05-07T09:50:13;29.42;;;20.70;;
52432;SDS011;38352;53.244;6.594;2023-05-07T09:52:41;30.30;;;19.98;;
52432;SDS011;38352;53.244;6.594;2023-05-07T09:55:08;28.30;;;18.63;;
52432;SDS011;38352;53.244;6.594;2023-05-07T09:57:34;28.90;;;19.60;;
52432;SDS011;38352;53.244;6.594;2023-05-07T10:00:02;27.33;;;18.65;;
52432;SDS011;38352;53.244;6.594;2023-05-07T10:02:33;27.45;;;19.20;;
52432;SDS011;38352;53.244;6.594;2023-05-07T10:05:01;26.80;;;18.63;;
52432;SDS011;38352;53.244;6.594;2023-05-07T10:07:28;27.67;;;19.20;;
52432;SDS011;38352;53.244;6.594;2023-05-07T10:09:55;29.85;;;18.80;;
52432;SDS011;38352;53.244;6.594;2023-05-07T10:12:21;27.60;;;18.85;;
52432;SDS011;38352;53.244;6.594;2023-05-07T10:14:47;28.10;;;17.73;;
52432;SDS011;38352;53.244;6.594;2023-05-07T10:17:15;26.80;;;19.15;;
52432;SDS011;38352;53.244;6.594;2023-05-07T10:19:44;25.63;;;17.85;;
52432;SDS011;38352;53.244;6.594;2023-05-07T10:22:10;25.25;;;18.15;;
52432;SDS011;38352;53.244;6.594;2023-05-07T10:24:36;25.13;;;17.85;;
52432;SDS011;38352;53.244;6.594;2023-05-07T10:27:09;28.27;;;17.63;;
52432;SDS011;38352;53.244;6.594;2023-05-07T10:34:42;25.63;;;18.10;;
52432;SDS011;38352;53.244;6.594;2023-05-07T10:37:09;25.10;;;16.98;;
52432;SDS011;38352;53.244;6.594;2023-05-07T10:39:35;26.38;;;17.60;;
52432;SDS011;38352;53.244;6.594;2023-05-07T10:42:11;24.20;;;17.17;;
52432;SDS011;38352;53.244;6.594;2023-05-07T10:44:37;24.80;;;17.77;;
52432;SDS011;38352;53.244;6.594;2023-05-07T10:47:11;25.20;;;17.95;;
52432;SDS011;38352;53.244;6.594;2023-05-07T10:54:39;27.75;;;17.77;;
52432;SDS011;38352;53.244;6.594;2023-05-07T10:59:50;25.85;;;17.50;;
52432;SDS011;38352;53.244;6.594;2023-05-07T11:02:17;27.13;;;17.90;;
52432;SDS011;38352;53.244;6.594;2023-05-07T11:04:43;24.85;;;17.35;;
52432;SDS011;38352;53.244;6.594;2023-05-07T11:07:28;22.45;;;16.63;;
52432;SDS011;38352;53.244;6.594;2023-05-07T11:09:55;26.75;;;17.63;;
52432;SDS011;38352;53.244;6.594;2023-05-07T11:15:08;24.25;;;16.95;;
52432;SDS011;38352;53.244;6.594;2023-05-07T11:17:34;22.20;;;16.10;;
52432;SDS011;38352;53.244;6.594;2023-05-07T11:20:17;23.95;;;17.23;;
52432;SDS011;38352;53.244;6.594;2023-05-07T11:22:43;21.52;;;16.30;;
52432;SDS011;38352;53.244;6.594;2023-05-07T11:25:09;21.73;;;15.55;;
52432;SDS011;38352;53.244;6.594;2023-05-07T11:27:36;21.73;;;15.65;;
52432;SDS011;38352;53.244;6.594;2023-05-07T11:30:02;22.00;;;16.15;;
52432;SDS011;38352;53.244;6.594;2023-05-07T11:32:31;20.67;;;15.82;;
52432;SDS011;38352;53.244;6.594;2023-05-07T11:34:58;23.05;;;16.13;;
52432;SDS011;38352;53.244;6.594;2023-05-07T11:37:25;22.20;;;15.25;;
52432;SDS011;38352;53.244;6.594;2023-05-07T11:42:47;19.15;;;15.15;;
52432;SDS011;38352;53.244;6.594;2023-05-07T11:45:14;18.50;;;14.80;;
52432;SDS011;38352;53.244;6.594;2023-05-07T11:47:49;18.75;;;15.23;;
52432;SDS011;38352;53.244;6.594;2023-05-07T11:50:15;20.17;;;15.52;;
52432;SDS011;38352;53.244;6.594;2023-05-07T11:52:49;20.02;;;15.32;;
52432;SDS011;38352;53.244;6.594;2023-05-07T11:55:17;19.52;;;14.80;;
52432;SDS011;38352;53.244;6.594;2023-05-07T11:57:44;19.75;;;15.32;;
52432;SDS011;38352;53.244;6.594;2023-05-07T12:00:10;19.17;;;15.02;;
52432;SDS011;38352;53.244;6.594;2023-05-07T12:02:36;18.45;;;14.10;;
52432;SDS011;38352;53.244;6.594;2023-05-07T12:05:03;17.20;;;14.02;;
52432;SDS011;38352;53.244;6.594;2023-05-07T12:07:29;18.60;;;14.07;;
52432;SDS011;38352;53.244;6.594;2023-05-07T12:09:56;16.60;;;14.55;;
52432;SDS011;38352;53.244;6.594;2023-05-07T12:12:22;18.17;;;13.57;;
52432;SDS011;38352;53.244;6.594;2023-05-07T12:14:49;19.98;;;14.57;;
52432;SDS011;38352;53.244;6.594;2023-05-07T12:17:15;18.13;;;14.35;;
52432;SDS011;38352;53.244;6.594;2023-05-07T12:19:42;17.63;;;13.85;;
52432;SDS011;38352;53.244;6.594;2023-05-07T12:22:11;16.02;;;13.32;;
52432;SDS011;38352;53.244;6.594;2023-05-07T12:24:44;15.30;;;13.57;;
52432;SDS011;38352;53.244;6.594;2023-05-07T12:27:10;17.15;;;13.90;;
52432;SDS011;38352;53.244;6.594;2023-05-07T12:29:37;18.55;;;14.00;;
52432;SDS011;38352;53.244;6.594;2023-05-07T12:32:05;15.68;;;12.85;;
52432;SDS011;38352;53.244;6.594;2023-05-07T12:34:32;17.15;;;13.68;;
52432;SDS011;38352;53.244;6.594;2023-05-07T12:37:01;16.98;;;13.70;;
52432;SDS011;38352;53.244;6.594;2023-05-07T12:39:28;17.45;;;13.95;;
52432;SDS011;38352;53.244;6.594;2023-05-07T12:41:55;16.90;;;14.15;;
52432;SDS011;38352;53.244;6.594;2023-05-07T12:44:22;18.30;;;13.95;;
52432;SDS011;38352;53.244;6.594;2023-05-07T12:46:49;17.83;;;14.63;;
52432;SDS011;38352;53.244;6.594;2023-05-07T12:49:15;18.60;;;14.65;;
52432;SDS011;38352;53.244;6.594;2023-05-07T12:51:43;17.42;;;14.15;;
52432;SDS011;38352;53.244;6.594;2023-05-07T12:54:09;18.50;;;14.02;;
52432;SDS011;38352;53.244;6.594;2023-05-07T12:56:35;17.45;;;14.70;;
52432;SDS011;38352;53.244;6.594;2023-05-07T12:59:02;20.48;;;16.35;;
52432;SDS011;38352;53.244;6.594;2023-05-07T13:01:29;15.70;;;12.80;;
52432;SDS011;38352;53.244;6.594;2023-05-07T13:04:02;18.08;;;14.25;;
52432;SDS011;38352;53.244;6.594;2023-05-07T13:06:30;18.00;;;14.30;;
52432;SDS011;38352;53.244;6.594;2023-05-07T13:08:56;17.55;;;14.18;;
52432;SDS011;38352;53.244;6.594;2023-05-07T13:11:22;18.20;;;15.30;;
52432;SDS011;38352;53.244;6.594;2023-05-07T13:13:48;19.33;;;16.30;;
52432;SDS011;38352;53.244;6.594;2023-05-07T13:16:15;17.95;;;14.65;;
52432;SDS011;38352;53.244;6.594;2023-05-07T13:18:41;17.20;;;15.13;;
52432;SDS011;38352;53.244;6.594;2023-05-07T13:21:08;20.73;;;15.48;;
52432;SDS011;38352;53.244;6.594;2023-05-07T13:23:35;16.17;;;14.10;;
52432;SDS011;38352;53.244;6.594;2023-05-07T13:26:03;18.52;;;15.43;;
52432;SDS011;38352;53.244;6.594;2023-05-07T13:28:29;16.83;;;14.80;;
52432;SDS011;38352;53.244;6.594;2023-05-07T13:30:55;18.80;;;15.07;;
52432;SDS011;38352;53.244;6.594;2023-05-07T13:33:22;16.80;;;14.85;;
52432;SDS011;38352;53.244;6.594;2023-05-07T13:35:49;16.13;;;14.38;;
52432;SDS011;38352;53.244;6.594;2023-05-07T13:38:15;17.35;;;14.85;;
52432;SDS011;38352;53.244;6.594;2023-05-07T13:40:41;17.10;;;14.65;;
52432;SDS011;38352;53.244;6.594;2023-05-07T13:43:07;16.10;;;14.40;;
52432;SDS011;38352;53.244;6.594;2023-05-07T13:45:33;15.85;;;14.15;;
52432;SDS011;38352;53.244;6.594;2023-05-07T13:47:59;15.32;;;13.55;;
52432;SDS011;38352;53.244;6.594;2023-05-07T13:50:25;15.40;;;13.77;;
52432;SDS011;38352;53.244;6.594;2023-05-07T13:52:52;16.85;;;14.10;;
52432;SDS011;38352;53.244;6.594;2023-05-07T13:55:18;15.90;;;13.18;;
52432;SDS011;38352;53.244;6.594;2023-05-07T13:57:44;14.65;;;12.57;;
52432;SDS011;38352;53.244;6.594;2023-05-07T14:00:11;14.07;;;12.68;;
52432;SDS011;38352;53.244;6.594;2023-05-07T14:02:37;16.58;;;13.52;;
52432;SDS011;38352;53.244;6.594;2023-05-07T14:05:04;16.02;;;14.23;;
52432;SDS011;38352;53.244;6.594;2023-05-07T14:07:30;14.45;;;12.82;;
52432;SDS011;38352;53.244;6.594;2023-05-07T14:09:56;14.48;;;12.52;;
52432;SDS011;38352;53.244;6.594;2023-05-07T14:12:22;14.25;;;12.43;;
52432;SDS011;38352;53.244;6.594;2023-05-07T14:14:48;15.40;;;13.80;;
52432;SDS011;38352;53.244;6.594;2023-05-07T14:17:18;16.48;;;13.23;;
52432;SDS011;38352;53.244;6.594;2023-05-07T14:19:45;15.13;;;13.20;;
52432;SDS011;38352;53.244;6.594;2023-05-07T14:22:12;15.40;;;13.27;;
52432;SDS011;38352;53.244;6.594;2023-05-07T14:24:40;17.40;;;13.90;;
52432;SDS011;38352;53.244;6.594;2023-05-07T14:27:06;14.32;;;12.23;;
52432;SDS011;38352;53.244;6.594;2023-05-07T14:29:32;15.35;;;12.45;;
52432;SDS011;38352;53.244;6.594;2023-05-07T14:32:00;13.77;;;12.35;;
52432;SDS011;38352;53.244;6.594;2023-05-07T14:34:27;13.52;;;11.90;;
52432;SDS011;38352;53.244;6.594;2023-05-07T14:36:53;14.95;;;12.32;;